Time;durP1;ratioP1;P1;durP2;ratioP2;P2;SDS_P1;SDS_P2;PMS_P1;PMS_P2;Temp;Humidity;BMP_temperature;BMP_pressure;BME280_temperature;BME280_humidity;BME280_pressure;Samples;Min_cycle;Max_cycle;Signal;HPM_P1;HPM_P2
2022/06/22 00:02:12;;;;;;;6.10;4.03;;;-40.00;99.90;;;;;;5138797;27;20522;-65
2022/06/22 00:04:42;;;;;;;7.80;3.67;;;-40.00;99.90;;;;;;5139523;27;20173;-66
2022/06/22 00:07:39;;;;;;;5.23;3.43;;;-40.00;99.90;;;;;;5139605;27;20248;-74
2022/06/22 00:10:14;;;;;;;7.17;2.97;;;-40.00;99.90;;;;;;5135697;27;20280;-67
2022/06/22 00:12:40;;;;;;;4.30;4.00;;;-40.00;99.90;;;;;;5139611;27;20169;-65
2022/06/22 00:15:36;;;;;;;4.40;4.00;;;-40.00;99.90;;;;;;5138348;27;20221;-66
2022/06/22 00:18:19;;;;;;;3.60;3.33;;;-40.00;99.90;;;;;;5139266;27;20161;-65
2022/06/22 00:20:52;;;;;;;8.50;3.17;;;-40.00;99.90;;;;;;5121290;27;20175;-72
2022/06/22 00:23:36;;;;;;;2.80;2.60;;;-40.00;99.90;;;;;;5139101;27;20195;-66
2022/06/22 00:26:06;;;;;;;7.90;3.83;;;-40.00;99.90;;;;;;5137094;27;20461;-71
2022/06/22 00:28:36;;;;;;;5.43;3.47;;;-40.00;99.90;;;;;;5139181;27;20168;-67
2022/06/22 00:31:34;;;;;;;4.10;3.67;;;-40.00;99.90;;;;;;5139095;27;20241;-71
2022/06/22 00:34:09;;;;;;;6.73;3.70;;;-40.00;99.90;;;;;;5139012;27;20166;-66
2022/06/22 00:36:55;;;;;;;6.60;4.30;;;-40.00;99.90;;;;;;5138916;27;20180;-68
2022/06/22 00:39:30;;;;;;;6.80;4.33;;;-40.00;99.90;;;;;;5138655;27;20170;-75
2022/06/22 00:42:14;;;;;;;4.00;3.33;;;-40.00;99.90;;;;;;5139189;27;20173;-67
2022/06/22 00:44:47;;;;;;;8.37;3.70;;;-40.00;99.90;;;;;;5138913;27;20170;-75
2022/06/22 00:47:24;;;;;;;3.77;3.23;;;-40.00;99.90;;;;;;5138833;27;20193;-65
2022/06/22 00:49:52;;;;;;;6.80;4.43;;;-40.00;99.90;;;;;;5138814;27;20240;-70
2022/06/22 00:52:27;;;;;;;3.43;3.13;;;-40.00;99.90;;;;;;5138605;27;20701;-77
2022/06/22 00:54:53;;;;;;;3.63;3.40;;;-40.00;99.90;;;;;;5138451;27;20188;-76
2022/06/22 00:57:28;;;;;;;4.27;3.80;;;-40.00;99.90;;;;;;5138689;27;20227;-76
2022/06/22 01:00:16;;;;;;;4.57;4.13;;;-40.00;99.90;;;;;;5138903;27;20168;-70
2022/06/22 01:02:52;;;;;;;3.20;3.00;;;-40.00;99.90;;;;;;5138478;27;20189;-74
2022/06/22 01:05:24;;;;;;;4.00;3.70;;;-40.00;99.90;;;;;;5137308;27;20229;-65
2022/06/22 01:08:13;;;;;;;7.10;4.57;;;-40.00;99.90;;;;;;5138216;27;20169;-75
2022/06/22 01:14:09;;;;;;;3.97;3.67;;;-40.00;99.90;;;;;;5123542;27;20170;-70
2022/06/22 01:16:38;;;;;;;3.77;3.47;;;-40.00;99.90;;;;;;5138413;27;20170;-74
2022/06/22 01:19:30;;;;;;;3.77;3.37;;;-40.00;99.90;;;;;;5138272;27;20150;-71
2022/06/22 01:22:32;;;;;;;4.37;3.97;;;-40.00;99.90;;;;;;5137871;27;20165;-73
2022/06/22 01:25:13;;;;;;;6.47;4.17;;;-40.00;99.90;;;;;;5124839;27;20181;-77
2022/06/22 01:27:41;;;;;;;4.20;3.70;;;-40.00;99.90;;;;;;5138228;27;20161;-69
2022/06/22 01:30:34;;;;;;;4.97;3.47;;;-40.00;99.90;;;;;;5137926;27;20241;-65
2022/06/22 01:33:13;;;;;;;4.87;3.77;;;-40.00;99.90;;;;;;5138021;27;20199;-74
2022/06/22 01:35:39;;;;;;;3.77;3.47;;;-40.00;99.90;;;;;;5136732;27;20682;-72
2022/06/22 01:38:23;;;;;;;7.20;3.60;;;-40.00;99.90;;;;;;5137516;27;20184;-66
2022/06/22 01:41:24;;;;;;;5.73;3.70;;;-40.00;99.90;;;;;;5137734;27;20500;-76
2022/06/22 01:44:12;;;;;;;3.27;3.07;;;-40.00;99.90;;;;;;5135404;27;20215;-72
2022/06/22 01:46:46;;;;;;;4.63;3.93;;;-40.00;99.90;;;;;;5137656;27;20561;-75
2022/06/22 01:49:16;;;;;;;4.10;3.30;;;-40.00;99.90;;;;;;5137686;27;20161;-76
2022/06/22 01:51:48;;;;;;;7.00;3.33;;;-40.00;99.90;;;;;;5137222;27;20225;-73
2022/06/22 01:54:17;;;;;;;3.50;3.30;;;-40.00;99.90;;;;;;5136485;27;20170;-67
2022/06/22 01:57:10;;;;;;;3.80;3.10;;;-40.00;99.90;;;;;;5137531;27;20569;-78
2022/06/22 02:00:04;;;;;;;3.77;3.30;;;-40.00;99.90;;;;;;5137542;27;20165;-74
2022/06/22 02:03:01;;;;;;;4.23;3.93;;;-40.00;99.90;;;;;;5137196;27;20193;-76
2022/06/22 02:05:56;;;;;;;6.87;3.97;;;-40.00;99.90;;;;;;5135528;27;20199;-76
2022/06/22 02:08:33;;;;;;;5.90;3.77;;;-40.00;99.90;;;;;;5133188;27;20180;-70
2022/06/22 02:11:12;;;;;;;6.67;4.17;;;-40.00;99.90;;;;;;5137343;27;20172;-74
2022/06/22 02:13:56;;;;;;;8.37;3.40;;;-40.00;99.90;;;;;;5137356;27;20637;-69
2022/06/22 02:16:44;;;;;;;4.80;4.23;;;-40.00;99.90;;;;;;5137077;27;20468;-72
2022/06/22 02:19:12;;;;;;;5.33;4.03;;;-40.00;99.90;;;;;;5137178;27;20238;-78
2022/06/22 02:21:52;;;;;;;4.40;4.00;;;-40.00;99.90;;;;;;5136848;27;20173;-69
2022/06/22 02:24:31;;;;;;;3.93;3.63;;;-40.00;99.90;;;;;;5136887;27;20192;-77
2022/06/22 02:27:02;;;;;;;3.97;3.67;;;-40.00;99.90;;;;;;5135880;27;20595;-75
2022/06/22 02:29:31;;;;;;;4.10;3.77;;;-40.00;99.90;;;;;;5137039;27;20215;-71
2022/06/22 02:32:01;;;;;;;4.03;3.57;;;-40.00;99.90;;;;;;5136939;27;20169;-76
2022/06/22 02:34:28;;;;;;;3.90;3.53;;;-40.00;99.90;;;;;;5135496;27;20172;-77
2022/06/22 02:36:54;;;;;;;4.40;3.30;;;-40.00;99.90;;;;;;5136598;27;20187;-70
2022/06/22 02:39:23;;;;;;;4.53;3.37;;;-40.00;99.90;;;;;;5136879;27;20587;-70
2022/06/22 02:44:39;;;;;;;4.43;4.03;;;-40.00;99.90;;;;;;5137151;27;20217;-67
2022/06/22 02:47:29;;;;;;;4.50;3.57;;;-40.00;99.90;;;;;;5136756;27;20165;-75
2022/06/22 02:50:13;;;;;;;11.03;4.07;;;-40.00;99.90;;;;;;5141568;27;20173;-69
2022/06/22 02:52:43;;;;;;;5.73;5.00;;;-40.00;99.90;;;;;;5143537;27;20227;-76
2022/06/22 02:55:17;;;;;;;4.83;4.33;;;-40.00;99.90;;;;;;5143656;27;20505;-72
2022/06/22 02:57:52;;;;;;;7.43;5.70;;;-40.00;99.90;;;;;;5143516;27;20267;-77
2022/06/22 03:00:24;;;;;;;6.57;4.90;;;-40.00;99.90;;;;;;5143552;27;20168;-67
2022/06/22 03:02:55;;;;;;;4.50;4.10;;;-40.00;99.90;;;;;;5143409;27;20192;-75
2022/06/22 03:05:23;;;;;;;5.07;4.67;;;-40.00;99.90;;;;;;5143071;27;20194;-68
2022/06/22 03:07:52;;;;;;;7.90;5.03;;;-40.00;99.90;;;;;;5143427;27;20165;-75
2022/06/22 03:10:27;;;;;;;5.10;4.17;;;-40.00;99.90;;;;;;5143646;27;20170;-79
2022/06/22 03:12:57;;;;;;;5.53;5.03;;;-40.00;99.90;;;;;;5143405;27;20161;-76
2022/06/22 03:15:27;;;;;;;5.57;5.07;;;-40.00;99.90;;;;;;5143662;27;20173;-78
2022/06/22 03:17:56;;;;;;;5.10;4.60;;;-40.00;99.90;;;;;;5143160;27;20256;-78
2022/06/22 03:20:26;;;;;;;5.33;4.87;;;-40.00;99.90;;;;;;5142372;27;20180;-78
2022/06/22 03:22:55;;;;;;;4.97;4.60;;;-40.00;99.90;;;;;;5143287;27;20208;-75
2022/06/22 03:25:46;;;;;;;5.60;4.20;;;-40.00;99.90;;;;;;5143221;27;20169;-73
2022/06/22 03:28:17;;;;;;;6.20;5.03;;;-40.00;99.90;;;;;;5143309;27;20169;-75
2022/06/22 03:31:05;;;;;;;5.40;4.90;;;-40.00;99.90;;;;;;5142293;27;20164;-70
2022/06/22 03:33:38;;;;;;;5.63;4.43;;;-40.00;99.90;;;;;;5142863;27;20169;-78
2022/06/22 03:36:35;;;;;;;5.73;4.43;;;-40.00;99.90;;;;;;5142250;27;20277;-78
2022/06/22 03:39:14;;;;;;;7.10;4.50;;;-40.00;99.90;;;;;;5139602;27;20321;-78
2022/06/22 03:41:47;;;;;;;6.70;4.90;;;-40.00;99.90;;;;;;5143150;27;20628;-79
2022/06/22 03:44:19;;;;;;;6.47;5.90;;;-40.00;99.90;;;;;;5143161;27;20197;-68
2022/06/22 03:46:51;;;;;;;6.87;5.67;;;-40.00;99.90;;;;;;5143155;27;20168;-66
2022/06/22 03:49:34;;;;;;;7.17;5.80;;;-40.00;99.90;;;;;;5143198;27;20220;-67
2022/06/22 03:52:13;;;;;;;6.33;5.80;;;-40.00;99.90;;;;;;5143309;27;20189;-69
2022/06/22 03:54:52;;;;;;;5.67;5.07;;;-40.00;99.90;;;;;;5143121;27;20197;-69
2022/06/22 03:57:23;;;;;;;5.03;4.60;;;-40.00;99.90;;;;;;5142304;27;20188;-65
2022/06/22 03:59:49;;;;;;;11.53;6.37;;;-40.00;99.90;;;;;;5142234;27;20161;-67
2022/06/22 04:02:17;;;;;;;11.70;5.10;;;-40.00;99.90;;;;;;5138713;27;20188;-67
2022/06/22 04:04:43;;;;;;;5.13;4.50;;;-40.00;99.90;;;;;;5139603;27;20192;-64
2022/06/22 04:07:14;;;;;;;5.00;4.70;;;-40.00;99.90;;;;;;5139698;27;20573;-70
2022/06/22 04:09:46;;;;;;;6.87;4.90;;;-40.00;99.90;;;;;;5139741;27;20177;-66
2022/06/22 04:12:31;;;;;;;5.77;5.27;;;-40.00;99.90;;;;;;5139676;27;20222;-65
2022/06/22 04:15:13;;;;;;;8.97;6.13;;;-40.00;99.90;;;;;;5139444;27;20192;-66
2022/06/22 04:17:46;;;;;;;7.43;5.27;;;-40.00;99.90;;;;;;5139205;27;20524;-65
2022/06/22 04:20:49;;;;;;;13.80;7.93;;;-40.00;99.90;;;;;;5139458;27;20168;-65
2022/06/22 04:23:15;;;;;;;7.10;5.63;;;-40.00;99.90;;;;;;5139052;27;20239;-67
2022/06/22 04:25:42;;;;;;;9.37;6.20;;;-40.00;99.90;;;;;;5139404;27;20219;-64
2022/06/22 04:28:11;;;;;;;7.03;6.07;;;-40.00;99.90;;;;;;5139354;27;20242;-66
2022/06/22 04:30:46;;;;;;;7.17;6.47;;;-40.00;99.90;;;;;;5138929;27;20194;-65
2022/06/22 04:33:38;;;;;;;11.93;6.53;;;-40.00;99.90;;;;;;5139159;27;20173;-64
2022/06/22 04:36:10;;;;;;;8.67;6.27;;;-40.00;99.90;;;;;;5143279;27;20231;-64
2022/06/22 04:38:41;;;;;;;9.73;7.47;;;-40.00;99.90;;;;;;5137070;27;20199;-68
2022/06/22 04:41:32;;;;;;;7.47;6.77;;;-40.00;99.90;;;;;;5137602;27;20622;-64
2022/06/22 04:44:04;;;;;;;8.60;7.17;;;-40.00;99.90;;;;;;5137879;27;20250;-64
2022/06/22 04:46:39;;;;;;;8.83;7.90;;;-40.00;99.90;;;;;;5138630;27;20576;-64
2022/06/22 04:49:31;;;;;;;12.33;7.47;;;-40.00;99.90;;;;;;5138918;27;20199;-64
2022/06/22 04:52:10;;;;;;;10.87;7.63;;;-40.00;99.90;;;;;;5137501;27;20204;-64
2022/06/22 04:54:40;;;;;;;9.27;8.03;;;-40.00;99.90;;;;;;5142255;27;20263;-65
2022/06/22 04:57:20;;;;;;;8.83;8.10;;;-40.00;99.90;;;;;;5138674;27;20523;-67
2022/06/22 04:59:47;;;;;;;9.03;8.23;;;-40.00;99.90;;;;;;5138099;27;20173;-66
2022/06/22 05:02:17;;;;;;;12.77;9.17;;;-40.00;99.90;;;;;;5138708;27;20165;-64
2022/06/22 05:04:46;;;;;;;9.23;8.20;;;-40.00;99.90;;;;;;5138426;27;20195;-65
2022/06/22 05:07:28;;;;;;;10.60;9.60;;;-40.00;99.90;;;;;;5138389;27;20201;-65
2022/06/22 05:10:08;;;;;;;11.33;10.03;;;-40.00;99.90;;;;;;5138451;27;20172;-67
2022/06/22 05:12:48;;;;;;;13.13;9.80;;;-40.00;99.90;;;;;;5138104;27;20168;-65
2022/06/22 05:15:22;;;;;;;9.90;8.93;;;-40.00;99.90;;;;;;5137934;27;20176;-64
2022/06/22 05:17:49;;;;;;;14.73;11.20;;;-40.00;99.90;;;;;;5138121;27;20192;-64
2022/06/22 05:20:21;;;;;;;12.63;10.97;;;-40.00;99.90;;;;;;5138099;27;20165;-65
2022/06/22 05:22:49;;;;;;;11.70;10.57;;;-40.00;99.90;;;;;;5138038;27;20193;-64
2022/06/22 05:25:17;;;;;;;10.87;9.87;;;-40.00;99.90;;;;;;5138083;27;20166;-65
2022/06/22 05:28:06;;;;;;;10.07;9.07;;;-40.00;99.90;;;;;;5137149;27;20196;-69
2022/06/22 05:30:53;;;;;;;11.53;10.43;;;-40.00;99.90;;;;;;5137672;27;20162;-72
2022/06/22 05:33:22;;;;;;;11.27;10.27;;;-40.00;99.90;;;;;;5137907;27;20172;-70
2022/06/22 05:36:17;;;;;;;11.73;10.63;;;-40.00;99.90;;;;;;5136868;27;20214;-70
2022/06/22 05:38:46;;;;;;;14.77;11.90;;;-40.00;99.90;;;;;;5136054;27;20250;-70
2022/06/22 05:41:24;;;;;;;16.27;11.30;;;-40.00;99.90;;;;;;5136643;27;20553;-75
2022/06/22 05:43:51;;;;;;;11.97;10.93;;;-40.00;99.90;;;;;;5135985;27;20204;-74
2022/06/22 05:46:17;;;;;;;15.53;12.30;;;-40.00;99.90;;;;;;5137424;27;20573;-77
2022/06/22 05:48:49;;;;;;;14.93;12.57;;;-40.00;99.90;;;;;;5137576;27;20189;-76
2022/06/22 05:51:37;;;;;;;16.53;12.37;;;-40.00;99.90;;;;;;5137394;27;20218;-71
2022/06/22 05:54:10;;;;;;;16.17;11.33;;;-40.00;99.90;;;;;;5137679;27;20249;-72
2022/06/22 05:56:50;;;;;;;11.83;10.67;;;-40.00;99.90;;;;;;5136222;27;20261;-75
2022/06/22 05:59:21;;;;;;;12.63;11.53;;;-40.00;99.90;;;;;;5137008;27;20431;-72
2022/06/22 06:02:02;;;;;;;13.90;12.23;;;-40.00;99.90;;;;;;5137351;27;20187;-74
2022/06/22 06:05:08;;;;;;;13.57;12.27;;;-40.00;99.90;;;;;;5137118;27;20567;-76
2022/06/22 06:07:59;;;;;;;12.53;11.27;;;-40.00;99.90;;;;;;5136980;27;20173;-72
2022/06/22 06:10:31;;;;;;;12.90;11.57;;;-40.00;99.90;;;;;;5136527;27;20587;-75
2022/06/22 06:13:22;;;;;;;10.97;10.03;;;-40.00;99.90;;;;;;5136987;27;20756;-71
2022/06/22 06:15:54;;;;;;;12.47;10.60;;;-40.00;99.90;;;;;;5136934;27;20189;-69
2022/06/22 06:18:26;;;;;;;12.67;10.27;;;-40.00;99.90;;;;;;5137169;27;20204;-74
2022/06/22 06:21:12;;;;;;;11.83;10.63;;;-40.00;99.90;;;;;;5136104;27;20170;-74
2022/06/22 06:23:47;;;;;;;12.87;10.50;;;-40.00;99.90;;;;;;5136210;27;20196;-68
2022/06/22 06:29:35;;;;;;;11.47;10.37;;;-40.00;99.90;;;;;;5137295;27;20204;-66
2022/06/22 06:32:28;;;;;;;12.40;11.20;;;-40.00;99.90;;;;;;5136929;27;20169;-66
2022/06/22 06:34:58;;;;;;;15.90;10.17;;;-40.00;99.90;;;;;;5136705;27;20244;-65
2022/06/22 06:37:51;;;;;;;10.47;9.37;;;-40.00;99.90;;;;;;5136651;27;20483;-68
2022/06/22 06:40:36;;;;;;;12.93;10.13;;;-40.00;99.90;;;;;;5136379;27;20354;-69
2022/06/22 06:43:15;;;;;;;9.73;8.90;;;-40.00;99.90;;;;;;5136435;27;20224;-71
2022/06/22 06:45:41;;;;;;;12.70;9.87;;;-40.00;99.90;;;;;;5136741;27;20165;-69
2022/06/22 06:48:16;;;;;;;13.27;9.87;;;-40.00;99.90;;;;;;5135597;27;20169;-71
2022/06/22 06:50:47;;;;;;;9.77;8.77;;;-40.00;99.90;;;;;;5136753;27;20167;-69
2022/06/22 06:53:16;;;;;;;10.17;9.13;;;-40.00;99.90;;;;;;5136524;27;20536;-74
2022/06/22 06:55:46;;;;;;;10.83;9.20;;;-40.00;99.90;;;;;;5136445;27;20169;-73
2022/06/22 06:58:35;;;;;;;7.80;7.10;;;-40.00;99.90;;;;;;5136604;27;20533;-69
2022/06/22 07:01:01;;;;;;;8.90;8.10;;;-40.00;99.90;;;;;;5136683;27;20580;-70
2022/06/22 07:03:35;;;;;;;14.37;9.33;;;-40.00;99.90;;;;;;5136542;27;20222;-70
2022/06/22 07:06:03;;;;;;;10.13;7.90;;;-40.00;99.90;;;;;;5136749;27;20229;-72
2022/06/22 07:08:45;;;;;;;7.93;7.20;;;-40.00;99.90;;;;;;5136569;27;20185;-74
2022/06/22 07:11:37;;;;;;;12.17;7.70;;;-40.00;99.90;;;;;;5136436;27;20164;-73
2022/06/22 07:14:15;;;;;;;10.23;7.27;;;-40.00;99.30;;;;;;5130570;28;20213;-70
2022/06/22 07:16:41;;;;;;;15.60;9.23;;;-40.00;98.40;;;;;;5136432;27;20165;-70
2022/06/22 07:19:25;;;;;;;11.57;7.17;;;-40.00;98.30;;;;;;5136301;27;20169;-71
2022/06/22 07:22:10;;;;;;;8.83;6.90;;;-40.00;96.10;;;;;;5136473;27;20204;-73
2022/06/22 07:24:48;;;;;;;8.73;7.60;;;-40.00;96.50;;;;;;5136127;27;20204;-73
2022/06/22 07:27:34;;;;;;;8.87;8.17;;;-40.00;98.40;;;;;;5136256;27;20603;-74
2022/06/22 07:30:08;;;;;;;9.70;7.80;;;-40.00;98.80;;;;;;5136376;27;20172;-74
2022/06/22 07:32:49;;;;;;;9.60;8.00;;;-40.00;98.90;;;;;;5136350;27;20210;-73
2022/06/22 07:35:18;;;;;;;9.70;7.40;;;-40.00;98.60;;;;;;5137618;27;20234;-75
2022/06/22 07:37:55;;;;;;;7.77;7.07;;;-40.00;97.70;;;;;;5139933;27;20217;-73
2022/06/22 07:40:24;;;;;;;8.50;7.47;;;-40.00;97.80;;;;;;5140027;27;20204;-67
2022/06/22 07:42:51;;;;;;;7.67;6.80;;;-40.00;97.70;;;;;;5140008;27;20532;-67
2022/06/22 07:45:20;;;;;;;8.17;6.80;;;-40.00;97.60;;;;;;5140077;27;20516;-73
2022/06/22 07:48:11;;;;;;;11.47;8.27;;;-40.00;98.20;;;;;;5139780;27;20173;-71
2022/06/22 07:50:44;;;;;;;8.57;6.20;;;-40.00;96.00;;;;;;5140197;27;20637;-69
2022/06/22 07:53:32;;;;;;;7.47;6.77;;;-40.00;95.80;;;;;;5139796;27;20268;-70
2022/06/22 07:56:20;;;;;;;6.40;5.80;;;-40.00;94.70;;;;;;5139765;27;20165;-69
2022/06/22 07:58:54;;;;;;;5.53;5.00;;;-40.00;95.00;;;;;;5139678;27;20234;-71
2022/06/22 08:01:26;;;;;;;5.93;4.90;;;-40.00;95.10;;;;;;5140099;27;20483;-69
2022/06/22 08:04:01;;;;;;;8.00;4.73;;;-40.00;93.80;;;;;;5139555;27;20189;-76
2022/06/22 08:06:34;;;;;;;6.23;5.60;;;-40.00;93.70;;;;;;5138521;27;20173;-72
2022/06/22 08:09:14;;;;;;;11.30;5.73;;;-40.00;93.20;;;;;;5139201;27;20165;-74
2022/06/22 08:11:48;;;;;;;5.40;4.90;;;-40.00;93.20;;;;;;5139594;27;20215;-75
2022/06/22 08:14:20;;;;;;;7.70;4.63;;;-40.00;92.70;;;;;;5139648;27;20169;-69
2022/06/22 08:16:51;;;;;;;6.83;6.23;;;-40.00;93.10;;;;;;5139847;27;20624;-73
2022/06/22 08:19:18;;;;;;;17.30;5.00;;;-40.00;92.20;;;;;;5139953;27;20197;-74
2022/06/22 08:21:47;;;;;;;8.10;5.23;;;-40.00;91.80;;;;;;5139844;27;20169;-75
2022/06/22 08:24:16;;;;;;;9.70;5.20;;;-40.00;92.30;;;;;;5139292;27;20223;-68
2022/06/22 08:26:42;;;;;;;8.97;5.13;;;-40.00;92.20;;;;;;5139518;27;20561;-69
2022/06/22 08:29:09;;;;;;;10.67;5.23;;;-40.00;92.00;;;;;;5139362;27;20191;-70
2022/06/22 08:31:51;;;;;;;7.30;5.67;;;-40.00;91.30;;;;;;5139439;27;20201;-68
2022/06/22 08:34:26;;;;;;;5.87;5.17;;;-40.00;91.80;;;;;;5139348;27;20165;-66
2022/06/22 08:37:05;;;;;;;10.30;5.90;;;-40.00;90.20;;;;;;5138983;27;20185;-73
2022/06/22 08:39:53;;;;;;;8.27;5.43;;;-40.00;89.30;;;;;;5139504;27;20173;-72
2022/06/22 08:42:36;;;;;;;5.60;4.50;;;-40.00;88.90;;;;;;5139647;27;20265;-76
2022/06/22 08:45:17;;;;;;;7.23;4.17;;;-40.00;87.70;;;;;;5139064;27;20161;-70
2022/06/22 08:48:10;;;;;;;5.53;5.10;;;-40.00;87.20;;;;;;5138581;27;20218;-71
2022/06/22 08:51:07;;;;;;;7.13;5.30;;;-40.00;85.40;;;;;;5138877;27;20172;-74
2022/06/22 08:54:09;;;;;;;5.70;4.67;;;-40.00;85.10;;;;;;5138640;27;20172;-75
2022/06/22 08:56:38;;;;;;;4.80;4.23;;;-40.00;85.50;;;;;;5137785;27;20185;-76
2022/06/22 08:59:18;;;;;;;6.20;5.63;;;-40.00;83.70;;;;;;5138510;27;20230;-71
2022/06/22 09:02:14;;;;;;;4.67;4.27;;;-40.00;84.00;;;;;;5138642;27;20173;-73
2022/06/22 09:05:02;;;;;;;9.27;4.73;;;-40.00;81.70;;;;;;5137246;27;20201;-71
2022/06/22 09:07:30;;;;;;;4.90;4.40;;;-40.00;82.10;;;;;;5138262;27;20181;-74
2022/06/22 09:10:18;;;;;;;4.63;4.23;;;-40.00;84.30;;;;;;5138361;27;20199;-72
2022/06/22 09:13:06;;;;;;;6.70;5.27;;;-40.00;82.80;;;;;;5138467;27;20214;-74
2022/06/22 09:15:49;;;;;;;7.40;4.13;;;-40.00;79.30;;;;;;5138263;27;20169;-70
2022/06/22 09:18:31;;;;;;;7.63;5.00;;;-40.00;79.90;;;;;;5138338;27;20537;-68
2022/06/22 09:21:24;;;;;;;6.87;4.27;;;-40.00;79.60;;;;;;5137885;27;20556;-71
2022/06/22 09:24:09;;;;;;;7.43;5.57;;;-40.00;79.80;;;;;;5138044;27;20191;-68
2022/06/22 09:26:53;;;;;;;9.67;4.97;;;-40.00;81.80;;;;;;5138110;27;20573;-68
2022/06/22 09:29:40;;;;;;;18.07;6.10;;;-40.00;79.10;;;;;;5138114;27;20173;-73
2022/06/22 09:32:12;;;;;;;10.13;4.90;;;-40.00;77.80;;;;;;5137839;27;20218;-68
2022/06/22 09:34:58;;;;;;;4.97;4.53;;;-40.00;77.80;;;;;;5137788;27;20178;-69
2022/06/22 09:38:12;;;;;;;5.10;4.03;;;-40.00;77.30;;;;;;5137890;27;20495;-71
2022/06/22 09:41:06;;;;;;;5.90;4.20;;;-40.00;74.80;;;;;;5136635;27;20596;-74
2022/06/22 09:43:49;;;;;;;10.67;4.93;;;-40.00;76.40;;;;;;5136594;27;20197;-73
2022/06/22 09:46:15;;;;;;;8.37;5.57;;;-40.00;75.80;;;;;;5137717;27;20197;-72
2022/06/22 09:48:56;;;;;;;11.87;6.80;;;-40.00;77.10;;;;;;5137787;27;20208;-72
2022/06/22 09:51:50;;;;;;;7.13;5.83;;;-40.00;72.70;;;;;;5137185;27;20185;-68
2022/06/22 09:57:38;;;;;;;5.13;4.73;;;-40.00;74.20;;;;;;5137456;27;20183;-70
2022/06/22 10:00:15;;;;;;;6.50;5.10;;;-40.00;71.50;;;;;;5135666;27;20169;-70
2022/06/22 10:03:14;;;;;;;7.80;6.80;;;-40.00;72.00;;;;;;5137385;27;20196;-68
2022/06/22 10:05:49;;;;;;;5.47;4.67;;;-40.00;70.10;;;;;;5136996;27;20180;-75
2022/06/22 10:08:43;;;;;;;5.00;4.10;;;-40.00;70.20;;;;;;5137304;27;20168;-73
2022/06/22 10:11:23;;;;;;;7.13;4.70;;;-40.00;68.60;;;;;;5137225;27;20169;-73
2022/06/22 10:14:16;;;;;;;5.73;4.83;;;-40.00;66.70;;;;;;5137250;27;20193;-74
2022/06/22 10:17:00;;;;;;;7.90;5.20;;;-40.00;70.00;;;;;;5136077;27;20264;-73
2022/06/22 10:19:41;;;;;;;4.00;3.70;;;-40.00;68.60;;;;;;5135828;27;20264;-73
2022/06/22 10:22:44;;;;;;;4.93;3.83;;;-40.00;64.60;;;;;;5135950;27;20184;-73
2022/06/22 10:25:27;;;;;;;8.43;4.73;;;-40.00;66.20;;;;;;5137074;27;20258;-73
2022/06/22 10:28:05;;;;;;;5.43;4.07;;;-40.00;63.00;;;;;;5136983;27;20193;-75
2022/06/22 10:31:06;;;;;;;5.80;4.03;;;-40.00;65.40;;;;;;5136946;27;20230;-76
2022/06/22 10:33:57;;;;;;;6.70;4.50;;;-40.00;65.00;;;;;;5093794;28;20178;-71
2022/06/22 10:36:22;;;;;;;6.33;4.00;;;-40.00;65.40;;;;;;5135345;27;20548;-74
2022/06/22 10:39:23;;;;;;;8.17;4.30;;;-40.00;62.80;;;;;;5136707;27;20189;-72
2022/06/22 10:45:25;;;;;;;8.00;4.07;;;-40.00;61.40;;;;;;5136832;27;20191;-74
2022/06/22 10:47:51;;;;;;;7.73;3.87;;;-40.00;59.10;;;;;;5136454;27;20218;-71
2022/06/22 10:50:49;;;;;;;6.37;3.50;;;-40.00;57.30;;;;;;5136770;27;20161;-74
2022/06/22 10:53:41;;;;;;;5.10;4.30;;;-40.00;58.80;;;;;;5136279;28;20188;-71
2022/06/22 10:56:34;;;;;;;4.67;4.00;;;-40.00;56.60;;;;;;5136670;27;20177;-74
2022/06/22 10:59:22;;;;;;;25.13;3.57;;;-40.00;57.40;;;;;;5136741;27;20161;-73
2022/06/22 11:02:12;;;;;;;7.10;3.83;;;-40.00;58.70;;;;;;5136298;27;20165;-73
2022/06/22 11:04:56;;;;;;;4.93;3.00;;;-40.00;58.40;;;;;;5136393;27;20201;-70
2022/06/22 11:07:40;;;;;;;7.53;3.87;;;-40.00;57.80;;;;;;5136587;27;20173;-71
2022/06/22 11:10:30;;;;;;;6.53;3.90;;;-40.00;56.30;;;;;;5137897;27;20199;-72
2022/06/22 11:13:20;;;;;;;5.27;4.17;;;-40.00;55.80;;;;;;5140581;27;20169;-71
2022/06/22 11:15:54;;;;;;;4.33;2.67;;;-40.00;56.20;;;;;;5140654;27;20169;-73
2022/06/22 11:18:36;;;;;;;5.33;2.93;;;-40.00;53.60;;;;;;5140330;27;20167;-71
2022/06/22 11:21:40;;;;;;;3.47;2.83;;;-40.00;54.60;;;;;;5139650;27;20170;-71
2022/06/22 11:24:33;;;;;;;3.70;3.37;;;-40.00;53.80;;;;;;5135995;27;20624;-67
2022/06/22 11:33:28;;;;;;;5.50;3.47;;;-40.00;53.00;;;;;;5139923;27;20226;-69
2022/06/22 11:36:36;;;;;;;3.70;3.40;;;-40.00;49.40;;;;;;5140230;27;20569;-75
2022/06/22 11:39:50;;;;;;;7.70;3.07;;;-40.00;51.10;;;;;;5140209;27;20189;-74
2022/06/22 11:42:37;;;;;;;10.37;2.70;;;-40.00;48.30;;;;;;5085160;27;20179;-69
2022/06/22 11:48:15;;;;;;;3.60;3.13;;;-40.00;46.10;;;;;;5140239;27;20226;-71
2022/06/22 11:50:41;;;;;;;4.57;2.77;;;-40.00;46.10;;;;;;5140094;27;20162;-75
2022/06/22 11:53:30;;;;;;;3.23;2.90;;;28.70;85.70;;;;;;5139861;27;20196;-71
2022/06/22 11:56:03;;;;;;;4.83;2.40;;;28.80;84.90;;;;;;5139747;27;20161;-70
2022/06/22 11:58:45;;;;;;;8.17;3.20;;;-40.00;45.10;;;;;;5139900;27;20157;-74
2022/06/22 12:01:23;;;;;;;4.63;2.90;;;-40.00;44.40;;;;;;5139624;27;20596;-70
2022/06/22 12:04:10;;;;;;;2.78;2.58;;;-40.00;42.30;;;;;;5139611;27;20484;-69
2022/06/22 12:06:45;;;;;;;4.50;3.60;;;-40.00;40.70;;;;;;5139728;27;20169;-69
2022/06/22 12:09:25;;;;;;;2.55;2.33;;;-40.00;37.50;;;;;;5139535;27;20256;-74
2022/06/22 12:12:19;;;;;;;6.88;2.00;;;31.10;76.30;;;;;;5139702;27;20165;-69
2022/06/22 12:15:12;;;;;;;8.52;4.55;;;-40.00;36.10;;;;;;5139243;27;20262;-75
2022/06/22 12:17:53;;;;;;;3.88;2.00;;;-40.00;35.90;;;;;;5138361;27;20169;-69
2022/06/22 12:20:37;;;;;;;3.53;2.13;;;-40.00;34.50;;;;;;5138358;27;20261;-69
2022/06/22 12:23:06;;;;;;;2.40;1.80;;;-40.00;34.60;;;;;;5138136;27;20192;-69
2022/06/22 12:25:54;;;;;;;4.05;2.17;;;-35.70;36.40;;;;;;5139240;27;20190;-69
2022/06/22 12:28:38;;;;;;;3.03;2.25;;;-29.60;39.80;;;;;;5139338;27;20168;-69
2022/06/22 12:31:17;;;;;;;2.92;2.20;;;-29.20;38.90;;;;;;5139282;27;20428;-70
2022/06/22 12:33:47;;;;;;;2.63;2.08;;;-21.50;42.40;;;;;;5139590;27;20188;-68
2022/06/22 12:36:16;;;;;;;2.35;1.90;;;-16.70;44.00;;;;;;5139410;27;20464;-70
2022/06/22 12:38:47;;;;;;;11.25;2.88;;;-6.70;48.90;;;;;;5139167;27;20477;-74
2022/06/22 12:41:24;;;;;;;4.97;2.67;;;-8.60;46.80;;;;;;5139197;27;20153;-76
2022/06/22 12:44:13;;;;;;;7.15;3.00;;;-1.90;48.20;;;;;;5137480;27;20191;-70
2022/06/22 12:47:13;;;;;;;8.00;2.13;;;-0.40;49.40;;;;;;5131522;27;20181;-70
2022/06/22 12:49:57;;;;;;;2.97;2.45;;;-2.20;47.00;;;;;;5138760;27;20645;-74
2022/06/22 12:52:43;;;;;;;3.80;2.08;;;0.80;47.10;;;;;;5138678;27;20495;-74
2022/06/22 12:55:16;;;;;;;4.05;2.17;;;4.60;47.80;;;;;;5137760;27;20174;-74
2022/06/22 12:57:54;;;;;;;1.90;1.65;;;3.30;48.80;;;;;;5138592;27;20283;-73
2022/06/22 13:00:22;;;;;;;2.47;2.00;;;3.90;46.70;;;;;;5137544;27;20170;-69
2022/06/22 13:02:51;;;;;;;7.72;2.80;;;3.50;44.50;;;;;;5138554;27;20185;-74
2022/06/22 13:05:24;;;;;;;3.83;1.75;;;5.40;48.40;;;;;;5137233;27;20177;-71
2022/06/22 13:07:57;;;;;;;4.40;2.53;;;4.90;46.70;;;;;;5137612;27;20172;-70
2022/06/22 13:10:25;;;;;;;4.45;2.17;;;5.60;46.00;;;;;;5138583;27;20507;-68
2022/06/22 13:13:12;;;;;;;2.85;1.98;;;5.30;47.70;;;;;;5138223;27;20174;-69
2022/06/22 13:15:51;;;;;;;2.28;2.05;;;7.70;47.00;;;;;;5138388;27;20214;-72
2022/06/22 13:18:24;;;;;;;4.40;3.15;;;10.40;46.40;;;;;;5138396;27;20226;-68
2022/06/22 13:21:16;;;;;;;2.42;2.20;;;11.30;47.10;;;;;;5137297;27;20467;-73
2022/06/22 13:24:18;;;;;;;4.47;2.00;;;13.10;45.80;;;;;;5138217;27;20675;-71
2022/06/22 13:27:20;;;;;;;3.40;2.67;;;11.80;47.80;;;;;;5136727;27;20591;-72
2022/06/22 13:29:57;;;;;;;2.50;2.35;;;11.60;44.30;;;;;;5138134;27;20180;-73
2022/06/22 13:32:26;;;;;;;4.95;2.33;;;11.10;46.60;;;;;;5136941;27;20165;-68
2022/06/22 13:34:58;;;;;;;4.00;2.35;;;10.50;44.70;;;;;;5138073;27;20585;-68
2022/06/22 13:37:53;;;;;;;4.15;2.50;;;11.40;44.60;;;;;;5136827;27;20278;-68
2022/06/22 13:40:42;;;;;;;3.33;2.30;;;11.00;42.80;;;;;;5137836;27;20177;-68
2022/06/22 13:43:17;;;;;;;2.38;2.10;;;11.10;45.50;;;;;;5137570;27;20189;-68
2022/06/22 13:46:07;;;;;;;2.72;2.53;;;11.10;44.70;;;;;;5137669;27;20158;-67
2022/06/22 13:48:53;;;;;;;2.25;2.00;;;12.00;44.20;;;;;;5137544;27;20154;-69
2022/06/22 13:51:51;;;;;;;2.25;1.92;;;11.70;43.70;;;;;;5136260;27;20237;-69
2022/06/22 13:54:31;;;;;;;5.13;2.33;;;10.70;43.30;;;;;;5136325;27;20454;-70
2022/06/22 13:57:18;;;;;;;2.47;2.25;;;13.70;40.30;;;;;;5137205;27;20174;-72
2022/06/22 14:00:09;;;;;;;4.53;2.47;;;14.20;45.40;;;;;;5137531;27;20165;-76
2022/06/22 14:03:06;;;;;;;2.22;2.03;;;14.40;43.00;;;;;;5137333;27;20169;-74
2022/06/22 14:05:42;;;;;;;2.83;2.60;;;13.90;42.20;;;;;;5136027;27;20186;-75